createdAt,value
2022-11-14T00:02:38.541Z,173.68
2022-11-14T00:05:24.100Z,107.68
2022-11-14T00:08:22.398Z,122.47
2022-11-14T00:11:08.962Z,228.48
2022-11-14T00:13:54.739Z,209.35
2022-11-14T00:16:40.208Z,213.00
2022-11-14T00:19:25.945Z,242.45
2022-11-14T00:22:11.376Z,280.73
2022-11-14T00:24:57.080Z,268.48
2022-11-14T00:27:42.621Z,185.95
2022-11-14T00:30:28.623Z,200.68
2022-11-14T00:33:19.824Z,199.32
2022-11-14T00:36:06.236Z,260.90
2022-11-14T00:38:54.285Z,103.53
2022-11-14T00:41:42.531Z,77.65
2022-11-14T00:44:28.171Z,65.82
2022-11-14T00:47:13.547Z,86.65
2022-11-14T00:49:59.147Z,45.72
2022-11-14T00:52:44.875Z,29.63
2022-11-14T00:55:30.697Z,57.35
2022-11-14T00:58:16.416Z,150.45
2022-11-14T01:01:02.302Z,82.90
2022-11-14T01:03:50.004Z,115.80
2022-11-14T01:06:35.578Z,45.42
2022-11-14T01:09:21.282Z,230.15
2022-11-14T01:12:06.992Z,103.05
2022-11-14T01:14:52.836Z,102.32
2022-11-14T01:17:38.711Z,88.05
2022-11-14T01:20:24.756Z,132.13
2022-11-14T01:23:12.781Z,135.98
2022-11-14T01:26:09.327Z,100.20
2022-11-14T01:28:55.043Z,176.25
2022-11-14T01:31:40.675Z,183.35
2022-11-14T01:34:26.249Z,159.25
2022-11-14T01:37:11.784Z,126.47
2022-11-14T01:39:57.366Z,173.32
2022-11-14T01:43:03.804Z,156.20
2022-11-14T01:45:59.061Z,162.50
2022-11-14T01:48:50.750Z,142.48
2022-11-14T01:51:50.801Z,116.30
2022-11-14T01:54:48.009Z,58.70
2022-11-14T01:57:38.688Z,206.60
2022-11-14T02:00:24.192Z,163.18
2022-11-14T02:03:13.358Z,243.50
2022-11-14T02:06:00.920Z,216.48
2022-11-14T02:08:48.060Z,382.05
2022-11-14T02:11:40.297Z,273.58
2022-11-14T02:14:27.614Z,269.60
2022-11-14T02:17:28.943Z,198.85
2022-11-14T02:20:28.851Z,155.73
2022-11-14T02:23:16.576Z,525.17
2022-11-14T02:26:02.652Z,353.80
2022-11-14T02:28:49.157Z,356.15
2022-11-14T02:31:35.153Z,179.55
2022-11-14T02:34:20.947Z,271.08
2022-11-14T02:37:07.391Z,342.08
2022-11-14T02:39:52.862Z,434.40
2022-11-14T02:42:38.747Z,475.58
2022-11-14T02:45:25.045Z,234.27
2022-11-14T02:48:11.018Z,351.08
2022-11-14T02:50:56.810Z,306.88
2022-11-14T02:53:42.753Z,264.33
2022-11-14T02:56:28.263Z,107.78
2022-11-14T02:59:13.828Z,470.95
2022-11-14T03:01:59.683Z,102.65
2022-11-14T03:04:45.599Z,365.15
2022-11-14T03:07:31.074Z,139.13
2022-11-14T03:10:17.083Z,197.68
2022-11-14T03:13:03.123Z,149.63
2022-11-14T03:15:48.849Z,197.10
2022-11-14T03:18:34.986Z,378.55
2022-11-14T03:21:23.679Z,125.18
2022-11-14T03:24:09.496Z,323.35
2022-11-14T03:26:55.462Z,231.05
2022-11-14T03:29:41.074Z,168.80
2022-11-14T03:32:26.914Z,188.45
2022-11-14T03:35:12.655Z,222.57
2022-11-14T03:37:57.902Z,96.65
2022-11-14T03:40:44.103Z,168.65
2022-11-14T03:43:33.387Z,58.15
2022-11-14T03:46:19.231Z,349.10
2022-11-14T03:49:05.601Z,258.50
2022-11-14T03:51:51.204Z,100.70
2022-11-14T03:54:37.863Z,318.48
2022-11-14T03:57:23.787Z,164.55
2022-11-14T04:00:10.198Z,160.55
2022-11-14T04:02:57.003Z,367.00
2022-11-14T04:05:45.897Z,300.50
2022-11-14T04:08:32.372Z,213.70
2022-11-14T04:11:19.138Z,198.60
2022-11-14T04:14:04.523Z,213.35
2022-11-14T04:16:50.189Z,75.45
2022-11-14T04:19:36.119Z,190.68
2022-11-14T04:22:22.153Z,552.33
2022-11-14T04:25:09.021Z,34.72
2022-11-14T04:27:54.965Z,283.20
2022-11-14T04:30:41.236Z,72.82
2022-11-14T04:33:27.052Z,260.10
2022-11-14T04:36:12.670Z,114.05
2022-11-14T04:38:58.436Z,376.83
2022-11-14T04:41:44.222Z,88.05
2022-11-14T04:44:29.774Z,192.65
2022-11-14T04:47:15.363Z,148.35
2022-11-14T04:50:00.747Z,43.00
2022-11-14T04:52:46.932Z,106.72
2022-11-14T04:55:32.778Z,78.38
2022-11-14T04:58:18.458Z,296.42
2022-11-14T05:01:09.547Z,208.98
2022-11-14T05:03:55.673Z,196.23
2022-11-14T05:06:41.491Z,275.83
2022-11-14T05:09:27.026Z,93.85
2022-11-14T05:12:12.870Z,89.30
2022-11-14T05:14:58.307Z,80.78
2022-11-14T05:17:44.043Z,214.18
2022-11-14T05:20:29.794Z,124.82
2022-11-14T05:23:22.360Z,236.60
2022-11-14T05:26:11.078Z,229.95
2022-11-14T05:28:56.787Z,197.70
2022-11-14T05:31:42.148Z,170.32
2022-11-14T05:34:28.057Z,94.70
2022-11-14T05:37:13.903Z,208.73
2022-11-14T05:39:59.374Z,165.13
2022-11-14T05:42:45.090Z,338.40
2022-11-14T05:45:31.009Z,106.35
2022-11-14T05:48:17.252Z,181.10
2022-11-14T05:51:05.437Z,117.07
2022-11-14T05:53:51.477Z,104.07
2022-11-14T05:56:37.210Z,75.30
2022-11-14T05:59:22.487Z,118.50
2022-11-14T06:02:08.011Z,105.53
2022-11-14T06:04:53.962Z,208.18
2022-11-14T06:07:39.533Z,50.55
2022-11-14T06:10:25.594Z,75.55
2022-11-14T06:13:11.021Z,62.90
2022-11-14T06:16:05.942Z,34.28
2022-11-14T06:18:55.253Z,142.68
2022-11-14T06:21:41.117Z,37.33
2022-11-14T06:24:26.857Z,77.55
2022-11-14T06:27:12.572Z,119.55
2022-11-14T06:29:58.248Z,93.28
2022-11-14T06:32:43.923Z,83.28
2022-11-14T06:35:32.511Z,162.90
2022-11-14T06:38:17.935Z,67.60
2022-11-14T06:41:15.902Z,97.88
2022-11-14T06:44:01.883Z,66.15
2022-11-14T06:46:47.543Z,118.28
2022-11-14T06:49:36.584Z,44.85
2022-11-14T06:52:26.636Z,36.85
2022-11-14T06:55:12.751Z,70.25
2022-11-14T06:57:58.336Z,98.30
2022-11-14T07:00:43.952Z,43.13
2022-11-14T07:03:29.948Z,53.10
2022-11-14T07:06:23.033Z,37.65
2022-11-14T07:09:10.724Z,41.22
2022-11-14T07:11:56.599Z,62.42
2022-11-14T07:14:42.255Z,46.17
2022-11-14T07:17:31.159Z,25.20
2022-11-14T07:20:20.608Z,35.40
2022-11-14T07:23:06.267Z,49.13
2022-11-14T07:25:52.087Z,60.92
2022-11-14T07:28:41.567Z,38.63
2022-11-14T07:31:27.003Z,26.45
2022-11-14T07:34:12.927Z,42.35
2022-11-14T07:36:58.754Z,51.25
2022-11-14T07:39:45.424Z,47.80
2022-11-14T07:42:31.394Z,44.78
2022-11-14T07:45:19.416Z,51.63
2022-11-14T07:48:05.537Z,51.40
2022-11-14T07:50:51.328Z,43.38
2022-11-14T07:53:37.018Z,44.17
2022-11-14T07:56:25.287Z,36.25
2022-11-14T07:59:10.879Z,44.17
2022-11-14T08:01:56.745Z,58.78
2022-11-14T08:04:42.474Z,39.63
2022-11-14T08:07:28.237Z,44.50
2022-11-14T08:10:14.912Z,53.28
2022-11-14T08:13:30.223Z,49.42
2022-11-14T08:16:13.828Z,51.55
2022-11-14T08:19:00.253Z,48.05
2022-11-14T08:21:45.970Z,45.05
2022-11-14T08:24:31.862Z,52.17
2022-11-14T08:27:17.869Z,47.42
2022-11-14T08:30:04.315Z,49.45
2022-11-14T08:32:50.023Z,44.95
2022-11-14T08:35:35.719Z,68.70
2022-11-14T08:38:21.149Z,53.50
2022-11-14T08:41:06.710Z,57.33
2022-11-14T08:43:52.402Z,61.03
2022-11-14T08:46:38.189Z,57.55
2022-11-14T08:49:23.716Z,63.92
2022-11-14T08:52:13.767Z,50.03
2022-11-14T08:55:02.404Z,59.67
2022-11-14T08:57:49.723Z,52.30
2022-11-14T09:00:35.638Z,56.42
2022-11-14T09:03:21.494Z,63.75
2022-11-14T09:06:07.269Z,68.82
2022-11-14T09:08:53.069Z,61.63
2022-11-14T09:11:38.859Z,69.82
2022-11-14T09:14:24.576Z,55.90
2022-11-14T09:17:10.317Z,49.83
2022-11-14T09:19:56.015Z,54.45
2022-11-14T09:22:42.100Z,38.05
2022-11-14T09:25:29.015Z,37.97
2022-11-14T09:28:14.354Z,37.42
2022-11-14T09:31:10.586Z,29.98
2022-11-14T09:33:56.084Z,40.67
2022-11-14T09:36:41.801Z,50.05
2022-11-14T09:39:27.422Z,56.78
2022-11-14T09:43:23.121Z,49.63
2022-11-14T09:46:36.652Z,52.95
2022-11-14T09:49:43.365Z,53.35
2022-11-14T09:52:45.576Z,51.55
2022-11-14T09:55:37.279Z,50.47
2022-11-14T09:58:23.352Z,47.05
2022-11-14T10:01:43.319Z,52.65
2022-11-14T10:04:44.038Z,45.42
2022-11-14T10:07:44.784Z,43.88
2022-11-14T10:10:42.951Z,53.10
2022-11-14T10:13:44.694Z,51.40
2022-11-14T10:17:27.918Z,41.92
2022-11-14T10:20:19.322Z,39.22
2022-11-14T10:23:50.704Z,38.53
2022-11-14T10:26:49.501Z,34.45
2022-11-14T10:30:01.067Z,33.60
2022-11-14T10:33:10.772Z,38.42
2022-11-14T10:36:28.875Z,33.33
2022-11-14T10:39:51.808Z,39.47
2022-11-14T10:42:42.584Z,38.40
2022-11-14T10:45:50.281Z,34.78
2022-11-14T10:48:41.419Z,34.90
2022-11-14T10:51:41.543Z,37.80
2022-11-14T10:54:48.107Z,43.47
2022-11-14T10:57:34.571Z,28.92
2022-11-14T11:00:24.773Z,36.00
2022-11-14T11:03:10.497Z,36.33
2022-11-14T11:09:31.137Z,34.85
2022-11-14T11:12:45.247Z,35.40
2022-11-14T11:15:38.607Z,39.58
2022-11-14T11:18:33.155Z,39.13
2022-11-14T11:21:22.766Z,34.25
2022-11-14T11:24:09.076Z,39.67
2022-11-14T11:27:25.212Z,35.35
2022-11-14T11:30:22.855Z,37.50
2022-11-14T11:33:21.700Z,38.97
2022-11-14T11:36:17.665Z,35.83
2022-11-14T11:39:03.650Z,34.47
2022-11-14T11:42:08.798Z,36.03
2022-11-14T11:44:59.771Z,42.10
2022-11-14T11:48:03.474Z,42.95
2022-11-14T11:50:49.589Z,35.83
2022-11-14T11:54:13.552Z,41.85
2022-11-14T11:57:04.987Z,33.47
2022-11-14T12:00:02.146Z,40.55
2022-11-14T12:02:50.942Z,33.83
2022-11-14T12:05:56.098Z,33.10
2022-11-14T12:09:13.584Z,37.42
2022-11-14T12:12:44.135Z,32.92
2022-11-14T12:16:10.231Z,27.42
2022-11-14T12:19:38.382Z,34.22
2022-11-14T12:22:41.979Z,26.70
2022-11-14T12:26:04.970Z,41.60
2022-11-14T12:29:35.052Z,29.02
2022-11-14T12:32:44.396Z,28.77
2022-11-14T12:35:33.874Z,31.15
2022-11-14T12:41:07.826Z,28.85
2022-11-14T12:44:14.477Z,33.83
2022-11-14T12:47:05.931Z,34.25
2022-11-14T12:49:55.207Z,38.33
2022-11-14T12:52:40.488Z,30.25
2022-11-14T12:55:26.184Z,27.70
2022-11-14T12:58:52.445Z,29.98
2022-11-14T13:01:52.979Z,25.15
2022-11-14T13:04:38.326Z,30.17
2022-11-14T13:08:08.532Z,40.08
2022-11-14T13:10:54.037Z,28.63
2022-11-14T13:14:20.327Z,30.48
2022-11-14T13:17:44.696Z,31.77
2022-11-14T13:20:53.963Z,25.45
2022-11-14T13:23:42.833Z,29.75
2022-11-14T13:26:31.393Z,30.77
2022-11-14T13:29:35.986Z,24.50
2022-11-14T13:32:40.543Z,25.90
2022-11-14T13:35:25.999Z,30.73
2022-11-14T13:39:01.298Z,28.15
2022-11-14T13:42:01.964Z,28.40
2022-11-14T13:45:03.119Z,31.30
2022-11-14T13:48:22.717Z,30.17
2022-11-14T13:51:36.607Z,29.63
2022-11-14T13:54:20.780Z,30.58
2022-11-14T13:57:28.301Z,33.22
2022-11-14T14:00:20.746Z,28.80
2022-11-14T14:03:51.496Z,36.70
2022-11-14T14:07:11.019Z,41.17
2022-11-14T14:10:29.976Z,39.45
2022-11-14T14:13:25.323Z,40.92
2022-11-14T14:16:38.897Z,61.28
2022-11-14T14:19:43.085Z,41.85
2022-11-14T14:23:19.087Z,48.00
2022-11-14T14:26:23.478Z,29.40
2022-11-14T14:29:48.355Z,36.10
2022-11-14T14:32:34.031Z,27.50
2022-11-14T14:35:25.483Z,27.48
2022-11-14T14:38:20.733Z,33.25
2022-11-14T14:41:06.820Z,32.80
2022-11-14T14:43:55.490Z,41.83
2022-11-14T14:46:41.434Z,28.20
2022-11-14T14:49:35.544Z,38.63
2022-11-14T14:52:28.299Z,38.47
2022-11-14T14:55:28.250Z,26.40
2022-11-14T14:58:25.443Z,32.65
2022-11-14T15:01:22.769Z,28.90
2022-11-14T15:04:14.639Z,27.65
2022-11-14T15:07:00.604Z,29.17
2022-11-14T15:10:01.170Z,35.08
2022-11-14T15:12:47.923Z,38.90
2022-11-14T15:15:34.027Z,65.38
2022-11-14T15:18:30.437Z,47.28
2022-11-14T15:21:28.307Z,40.67
2022-11-14T15:24:21.234Z,50.20
2022-11-14T15:27:19.801Z,55.58
2022-11-14T15:30:19.633Z,36.00
2022-11-14T15:33:28.408Z,36.78
2022-11-14T15:36:19.117Z,37.45
2022-11-14T15:39:24.342Z,47.00
2022-11-14T15:42:23.814Z,64.22
2022-11-14T15:45:24.563Z,54.83
2022-11-14T15:48:17.442Z,50.22
2022-11-14T15:51:03.434Z,54.72
2022-11-14T15:53:49.590Z,44.95
2022-11-14T15:56:35.788Z,59.40
2022-11-14T15:59:22.131Z,56.35
2022-11-14T16:02:29.232Z,76.35
2022-11-14T16:05:16.974Z,78.53
2022-11-14T16:08:04.074Z,81.45
2022-11-14T16:10:49.868Z,55.13
2022-11-14T16:13:35.306Z,79.88
2022-11-14T16:16:21.764Z,48.28
2022-11-14T16:19:09.754Z,76.68
2022-11-14T16:22:02.352Z,52.83
2022-11-14T16:24:47.791Z,51.47
2022-11-14T16:27:33.568Z,49.67
2022-11-14T16:30:21.415Z,81.82
2022-11-14T16:33:08.734Z,66.63
2022-11-14T16:35:54.572Z,50.28
2022-11-14T16:38:40.276Z,80.20
2022-11-14T16:41:26.352Z,50.80
2022-11-14T16:44:18.467Z,59.95
2022-11-14T16:47:04.278Z,48.83
2022-11-14T16:49:49.788Z,57.88
2022-11-14T16:52:38.691Z,75.95
2022-11-14T16:55:24.471Z,60.55
2022-11-14T16:58:10.231Z,51.03
2022-11-14T17:00:55.755Z,48.65
2022-11-14T17:03:41.892Z,60.60
2022-11-14T17:06:29.143Z,82.97
2022-11-14T17:09:15.263Z,61.45
2022-11-14T17:12:01.124Z,58.15
2022-11-14T17:14:46.957Z,40.45
2022-11-14T17:17:32.580Z,52.65
2022-11-14T17:20:18.480Z,53.40
2022-11-14T17:23:04.277Z,48.30
2022-11-14T17:25:49.902Z,74.10
2022-11-14T17:28:35.598Z,53.58
2022-11-14T17:31:21.198Z,54.72
2022-11-14T17:34:09.599Z,61.60
2022-11-14T17:36:55.432Z,48.33
2022-11-14T17:39:40.793Z,53.58
2022-11-14T17:42:26.985Z,63.55
2022-11-14T17:45:12.647Z,68.95
2022-11-14T17:47:58.324Z,63.22
2022-11-14T17:50:44.097Z,73.43
2022-11-14T17:53:33.453Z,67.43
2022-11-14T17:56:23.763Z,63.63
2022-11-14T17:59:09.275Z,89.93
2022-11-14T18:01:59.032Z,93.13
2022-11-14T18:04:46.495Z,92.00
2022-11-14T18:07:32.554Z,115.65
2022-11-14T18:10:18.248Z,116.95
2022-11-14T18:13:04.670Z,92.72
2022-11-14T18:15:50.470Z,82.63
2022-11-14T18:18:37.180Z,75.15
2022-11-14T18:21:25.656Z,75.35
2022-11-14T18:24:14.138Z,85.57
2022-11-14T18:27:00.076Z,86.70
2022-11-14T18:29:45.928Z,78.50
2022-11-14T18:32:31.973Z,74.65
2022-11-14T18:35:17.571Z,66.82
2022-11-14T18:38:03.189Z,89.95
2022-11-14T18:40:52.953Z,83.53
2022-11-14T18:43:43.808Z,91.22
2022-11-14T18:46:36.908Z,75.72
2022-11-14T18:49:23.417Z,68.35
2022-11-14T18:52:14.215Z,72.25
2022-11-14T18:55:04.206Z,73.05
2022-11-14T18:57:50.144Z,97.68
2022-11-14T19:00:35.670Z,93.65
2022-11-14T19:03:21.465Z,84.13
2022-11-14T19:06:11.000Z,78.05
2022-11-14T19:09:03.581Z,74.43
2022-11-14T19:12:11.447Z,79.68
2022-11-14T19:14:57.364Z,66.88
2022-11-14T19:17:43.302Z,75.03
2022-11-14T19:20:29.478Z,67.82
2022-11-14T19:23:15.126Z,70.75
2022-11-14T19:26:01.586Z,65.60
2022-11-14T19:28:48.668Z,79.72
2022-11-14T19:31:34.462Z,60.70
2022-11-14T19:34:20.447Z,57.22
2022-11-14T19:37:06.038Z,62.03
2022-11-14T19:39:54.836Z,67.88
2022-11-14T19:42:40.517Z,71.45
2022-11-14T19:45:26.404Z,73.53
2022-11-14T19:48:12.341Z,75.85
2022-11-14T19:51:06.585Z,76.80
2022-11-14T19:53:53.515Z,64.85
2022-11-14T19:56:39.280Z,74.70
2022-11-14T19:59:27.379Z,69.82
2022-11-14T20:02:14.302Z,72.90
2022-11-14T20:05:00.135Z,71.80
2022-11-14T20:07:46.111Z,67.88
2022-11-14T20:10:46.744Z,75.28
2022-11-14T20:13:36.458Z,74.80
2022-11-14T20:16:25.757Z,65.47
2022-11-14T20:19:11.425Z,64.20
2022-11-14T20:21:57.471Z,77.20
2022-11-14T20:24:43.542Z,73.88
2022-11-14T20:27:29.464Z,74.45
2022-11-14T20:30:15.490Z,70.78
2022-11-14T20:33:01.522Z,71.32
2022-11-14T20:35:48.123Z,71.97
2022-11-14T20:38:34.660Z,81.32
2022-11-14T20:41:20.598Z,69.38
2022-11-14T20:44:07.315Z,72.25
2022-11-14T20:46:54.909Z,75.68
2022-11-14T20:49:41.861Z,77.18
2022-11-14T20:52:27.306Z,87.38
2022-11-14T20:55:15.145Z,86.03
2022-11-14T20:58:00.933Z,64.47
2022-11-14T21:00:49.801Z,68.00
2022-11-14T21:03:36.426Z,66.07
2022-11-14T21:06:21.891Z,76.28
2022-11-14T21:09:09.274Z,71.78
2022-11-14T21:11:54.929Z,74.07
2022-11-14T21:14:40.843Z,69.30
2022-11-14T21:17:27.049Z,62.58
2022-11-14T21:20:12.879Z,65.70
2022-11-14T21:22:58.469Z,63.50
2022-11-14T21:25:44.513Z,54.75
2022-11-14T21:28:32.296Z,55.08
2022-11-14T21:31:20.098Z,52.97
2022-11-14T21:34:14.058Z,52.78
2022-11-14T21:36:59.971Z,66.30
2022-11-14T21:39:47.630Z,64.15
2022-11-14T21:42:33.465Z,65.03
2022-11-14T21:45:19.270Z,66.43
2022-11-14T21:48:05.081Z,68.82
2022-11-14T21:50:50.748Z,66.15
2022-11-14T21:53:38.267Z,68.57
2022-11-14T21:56:27.097Z,68.65
2022-11-14T21:59:16.556Z,54.53
2022-11-14T22:05:07.314Z,61.22
2022-11-14T22:07:52.893Z,69.50
2022-11-14T22:10:38.703Z,70.78
2022-11-14T22:13:24.502Z,46.13
2022-11-14T22:16:11.047Z,44.80
2022-11-14T22:19:01.938Z,48.25
2022-11-14T22:21:50.164Z,50.08
2022-11-14T22:24:36.002Z,37.20
2022-11-14T22:27:21.522Z,39.00
2022-11-14T22:30:08.073Z,42.85
2022-11-14T22:32:53.773Z,31.58
2022-11-14T22:35:39.516Z,33.55
2022-11-14T22:38:29.638Z,37.90
2022-11-14T22:41:19.012Z,43.55
2022-11-14T22:44:05.638Z,28.92
2022-11-14T22:46:50.997Z,42.65
2022-11-14T22:49:36.676Z,38.15
2022-11-14T22:52:22.104Z,47.50
2022-11-14T22:55:11.339Z,53.63
2022-11-14T22:57:59.189Z,48.13
2022-11-14T23:00:44.963Z,37.15
2022-11-14T23:03:30.529Z,25.77
2022-11-14T23:06:18.157Z,41.38
2022-11-14T23:09:04.350Z,39.72
2022-11-14T23:11:50.226Z,42.97
2022-11-14T23:14:35.966Z,31.63
2022-11-14T23:17:21.454Z,41.65
2022-11-14T23:20:11.152Z,28.90
2022-11-14T23:23:00.759Z,34.00
2022-11-14T23:25:46.378Z,23.90
2022-11-14T23:28:32.539Z,31.00
2022-11-14T23:31:21.336Z,34.05
2022-11-14T23:34:07.253Z,24.10
2022-11-14T23:36:52.995Z,31.27
2022-11-14T23:39:38.735Z,27.45
2022-11-14T23:42:24.638Z,28.95
2022-11-14T23:45:10.333Z,34.22
2022-11-14T23:47:56.224Z,29.48
2022-11-14T23:50:42.451Z,30.67
2022-11-14T23:53:29.333Z,24.90
2022-11-14T23:56:15.411Z,30.40
2022-11-14T23:59:01.095Z,24.52
